sensor_id;sensor_type;location;lat;lon;timestamp;temperature;humidity
23137;DHT22;11737;50.558;7.258;2023-03-21T00:01:05;11.20;99.90
23137;DHT22;11737;50.558;7.258;2023-03-21T00:03:33;11.10;99.90
23137;DHT22;11737;50.558;7.258;2023-03-21T00:06:06;11.10;99.90
23137;DHT22;11737;50.558;7.258;2023-03-21T00:08:34;11.10;99.90
23137;DHT22;11737;50.558;7.258;2023-03-21T00:11:04;11.10;99.90
23137;DHT22;11737;50.558;7.258;2023-03-21T00:13:32;11.10;99.90
23137;DHT22;11737;50.558;7.258;2023-03-21T00:18:36;11.10;99.90
23137;DHT22;11737;50.558;7.258;2023-03-21T00:21:05;11.10;99.90
23137;DHT22;11737;50.558;7.258;2023-03-21T00:23:34;11.10;99.90
23137;DHT22;11737;50.558;7.258;2023-03-21T00:26:02;11.00;99.90
23137;DHT22;11737;50.558;7.258;2023-03-21T00:28:29;11.00;99.90
23137;DHT22;11737;50.558;7.258;2023-03-21T00:31:00;11.10;99.90
23137;DHT22;11737;50.558;7.258;2023-03-21T00:33:27;11.10;99.90
23137;DHT22;11737;50.558;7.258;2023-03-21T00:35:55;11.10;99.90
23137;DHT22;11737;50.558;7.258;2023-03-21T00:38:23;11.10;99.90
23137;DHT22;11737;50.558;7.258;2023-03-21T00:40:50;11.00;99.90
23137;DHT22;11737;50.558;7.258;2023-03-21T00:43:18;11.00;99.90
23137;DHT22;11737;50.558;7.258;2023-03-21T00:45:49;11.00;99.90
23137;DHT22;11737;50.558;7.258;2023-03-21T00:48:18;11.00;99.90
23137;DHT22;11737;50.558;7.258;2023-03-21T00:50:46;11.00;99.90
23137;DHT22;11737;50.558;7.258;2023-03-21T00:53:14;11.00;99.90
23137;DHT22;11737;50.558;7.258;2023-03-21T00:55:42;11.00;99.90
23137;DHT22;11737;50.558;7.258;2023-03-21T00:58:09;11.00;99.90
23137;DHT22;11737;50.558;7.258;2023-03-21T01:00:38;11.00;99.90
23137;DHT22;11737;50.558;7.258;2023-03-21T01:03:07;11.00;99.90
23137;DHT22;11737;50.558;7.258;2023-03-21T01:05:37;11.00;99.90
23137;DHT22;11737;50.558;7.258;2023-03-21T01:08:23;11.10;99.90
23137;DHT22;11737;50.558;7.258;2023-03-21T01:10:52;11.10;99.90
23137;DHT22;11737;50.558;7.258;2023-03-21T01:13:22;11.10;99.90
23137;DHT22;11737;50.558;7.258;2023-03-21T01:15:54;11.10;99.90
23137;DHT22;11737;50.558;7.258;2023-03-21T01:18:24;11.10;99.90
23137;DHT22;11737;50.558;7.258;2023-03-21T01:20:54;11.00;99.90
23137;DHT22;11737;50.558;7.258;2023-03-21T01:23:23;11.10;99.90
23137;DHT22;11737;50.558;7.258;2023-03-21T01:25:52;11.10;99.90
23137;DHT22;11737;50.558;7.258;2023-03-21T01:28:21;11.10;99.90
23137;DHT22;11737;50.558;7.258;2023-03-21T01:30:50;11.10;99.90
23137;DHT22;11737;50.558;7.258;2023-03-21T01:33:19;11.10;99.90
23137;DHT22;11737;50.558;7.258;2023-03-21T01:35:47;11.00;99.90
23137;DHT22;11737;50.558;7.258;2023-03-21T01:38:15;11.00;99.90
23137;DHT22;11737;50.558;7.258;2023-03-21T01:40:45;11.00;99.90
23137;DHT22;11737;50.558;7.258;2023-03-21T01:46:34;11.10;99.90
23137;DHT22;11737;50.558;7.258;2023-03-21T01:49:08;11.10;99.90
23137;DHT22;11737;50.558;7.258;2023-03-21T01:51:48;11.10;99.90
23137;DHT22;11737;50.558;7.258;2023-03-21T01:54:22;11.10;99.90
23137;DHT22;11737;50.558;7.258;2023-03-21T01:56:52;11.10;99.90
23137;DHT22;11737;50.558;7.258;2023-03-21T01:59:42;11.10;99.90
23137;DHT22;11737;50.558;7.258;2023-03-21T02:02:11;11.10;99.90
23137;DHT22;11737;50.558;7.258;2023-03-21T02:07:33;11.10;99.90
23137;DHT22;11737;50.558;7.258;2023-03-21T02:10:04;11.10;99.90
23137;DHT22;11737;50.558;7.258;2023-03-21T02:12:33;11.10;99.90
23137;DHT22;11737;50.558;7.258;2023-03-21T02:15:01;11.00;99.90
23137;DHT22;11737;50.558;7.258;2023-03-21T02:17:41;11.00;99.90
23137;DHT22;11737;50.558;7.258;2023-03-21T02:23:23;11.00;99.90
23137;DHT22;11737;50.558;7.258;2023-03-21T02:31:48;10.90;99.90
23137;DHT22;11737;50.558;7.258;2023-03-21T02:42:50;10.70;99.90
23137;DHT22;11737;50.558;7.258;2023-03-21T02:45:21;10.70;99.90
23137;DHT22;11737;50.558;7.258;2023-03-21T02:47:56;10.60;99.90
23137;DHT22;11737;50.558;7.258;2023-03-21T02:53:10;10.60;99.90
23137;DHT22;11737;50.558;7.258;2023-03-21T02:55:39;10.60;99.90
23137;DHT22;11737;50.558;7.258;2023-03-21T02:58:11;10.50;99.90
23137;DHT22;11737;50.558;7.258;2023-03-21T03:00:39;10.50;99.90
23137;DHT22;11737;50.558;7.258;2023-03-21T03:03:09;10.50;99.90
23137;DHT22;11737;50.558;7.258;2023-03-21T03:05:41;10.50;99.90
23137;DHT22;11737;50.558;7.258;2023-03-21T03:08:13;10.50;99.90
23137;DHT22;11737;50.558;7.258;2023-03-21T03:10:55;10.50;99.90
23137;DHT22;11737;50.558;7.258;2023-03-21T03:18:58;10.50;99.90
23137;DHT22;11737;50.558;7.258;2023-03-21T03:24:17;10.50;99.90
23137;DHT22;11737;50.558;7.258;2023-03-21T03:26:49;10.40;99.90
23137;DHT22;11737;50.558;7.258;2023-03-21T03:29:17;10.40;99.90
23137;DHT22;11737;50.558;7.258;2023-03-21T03:34:26;10.20;99.90
23137;DHT22;11737;50.558;7.258;2023-03-21T03:36:56;10.20;99.90
23137;DHT22;11737;50.558;7.258;2023-03-21T03:39:30;10.20;99.90
23137;DHT22;11737;50.558;7.258;2023-03-21T03:42:04;10.10;99.90
23137;DHT22;11737;50.558;7.258;2023-03-21T03:44:28;10.00;99.90
23137;DHT22;11737;50.558;7.258;2023-03-21T03:47:16;10.00;99.90
23137;DHT22;11737;50.558;7.258;2023-03-21T03:49:52;9.90;99.90
23137;DHT22;11737;50.558;7.258;2023-03-21T03:52:25;9.90;99.90
23137;DHT22;11737;50.558;7.258;2023-03-21T03:54:49;9.90;99.90
23137;DHT22;11737;50.558;7.258;2023-03-21T03:57:18;9.90;99.90
23137;DHT22;11737;50.558;7.258;2023-03-21T03:59:46;9.90;99.90
23137;DHT22;11737;50.558;7.258;2023-03-21T04:02:14;9.90;99.90
23137;DHT22;11737;50.558;7.258;2023-03-21T04:04:42;9.80;99.90
23137;DHT22;11737;50.558;7.258;2023-03-21T04:07:10;9.80;99.90
23137;DHT22;11737;50.558;7.258;2023-03-21T04:09:37;9.80;99.90
23137;DHT22;11737;50.558;7.258;2023-03-21T04:12:05;9.70;99.90
23137;DHT22;11737;50.558;7.258;2023-03-21T04:14:32;9.60;99.90
23137;DHT22;11737;50.558;7.258;2023-03-21T04:17:00;9.60;99.90
23137;DHT22;11737;50.558;7.258;2023-03-21T04:19:27;9.50;99.90
23137;DHT22;11737;50.558;7.258;2023-03-21T04:21:55;9.40;99.90
23137;DHT22;11737;50.558;7.258;2023-03-21T04:24:22;9.40;99.90
23137;DHT22;11737;50.558;7.258;2023-03-21T04:26:50;9.30;99.90
23137;DHT22;11737;50.558;7.258;2023-03-21T04:29:19;9.30;99.90
23137;DHT22;11737;50.558;7.258;2023-03-21T04:31:47;9.30;99.90
23137;DHT22;11737;50.558;7.258;2023-03-21T04:34:15;9.20;99.90
23137;DHT22;11737;50.558;7.258;2023-03-21T04:36:43;9.30;99.90
23137;DHT22;11737;50.558;7.258;2023-03-21T04:39:13;9.20;99.90
23137;DHT22;11737;50.558;7.258;2023-03-21T04:41:43;9.20;99.90
23137;DHT22;11737;50.558;7.258;2023-03-21T04:44:13;9.10;99.90
23137;DHT22;11737;50.558;7.258;2023-03-21T04:46:41;9.10;99.90
23137;DHT22;11737;50.558;7.258;2023-03-21T04:49:08;9.10;99.90
23137;DHT22;11737;50.558;7.258;2023-03-21T04:51:37;9.00;99.90
23137;DHT22;11737;50.558;7.258;2023-03-21T04:54:05;9.10;99.90
23137;DHT22;11737;50.558;7.258;2023-03-21T04:56:32;9.10;99.90
23137;DHT22;11737;50.558;7.258;2023-03-21T04:59:07;9.10;99.90
23137;DHT22;11737;50.558;7.258;2023-03-21T05:01:35;9.10;99.90
23137;DHT22;11737;50.558;7.258;2023-03-21T05:04:03;9.10;99.90
23137;DHT22;11737;50.558;7.258;2023-03-21T05:06:31;9.20;99.90
23137;DHT22;11737;50.558;7.258;2023-03-21T05:09:00;9.20;99.90
23137;DHT22;11737;50.558;7.258;2023-03-21T05:11:30;9.30;99.90
23137;DHT22;11737;50.558;7.258;2023-03-21T05:13:58;9.30;99.90
23137;DHT22;11737;50.558;7.258;2023-03-21T05:16:26;9.30;99.90
23137;DHT22;11737;50.558;7.258;2023-03-21T05:18:56;9.30;99.90
23137;DHT22;11737;50.558;7.258;2023-03-21T05:24:20;9.40;99.90
23137;DHT22;11737;50.558;7.258;2023-03-21T05:26:48;9.30;99.90
23137;DHT22;11737;50.558;7.258;2023-03-21T05:29:20;9.40;99.90
23137;DHT22;11737;50.558;7.258;2023-03-21T05:31:47;9.40;99.90
23137;DHT22;11737;50.558;7.258;2023-03-21T05:34:15;9.50;99.90
23137;DHT22;11737;50.558;7.258;2023-03-21T05:36:42;9.60;99.90
23137;DHT22;11737;50.558;7.258;2023-03-21T05:39:10;9.60;99.90
23137;DHT22;11737;50.558;7.258;2023-03-21T05:41:37;9.70;99.90
23137;DHT22;11737;50.558;7.258;2023-03-21T05:44:05;9.70;99.90
23137;DHT22;11737;50.558;7.258;2023-03-21T05:46:32;9.70;99.90
23137;DHT22;11737;50.558;7.258;2023-03-21T05:49:00;9.80;99.90
23137;DHT22;11737;50.558;7.258;2023-03-21T05:51:27;9.80;99.90
23137;DHT22;11737;50.558;7.258;2023-03-21T05:53:55;9.80;99.90
23137;DHT22;11737;50.558;7.258;2023-03-21T05:56:22;9.70;99.90
23137;DHT22;11737;50.558;7.258;2023-03-21T05:58:50;9.80;99.90
23137;DHT22;11737;50.558;7.258;2023-03-21T06:01:17;9.80;99.90
23137;DHT22;11737;50.558;7.258;2023-03-21T06:03:45;9.90;99.90
23137;DHT22;11737;50.558;7.258;2023-03-21T06:06:12;9.90;99.90
23137;DHT22;11737;50.558;7.258;2023-03-21T06:08:40;10.00;99.90
23137;DHT22;11737;50.558;7.258;2023-03-21T06:11:12;10.10;99.90
23137;DHT22;11737;50.558;7.258;2023-03-21T06:13:38;10.10;99.90
23137;DHT22;11737;50.558;7.258;2023-03-21T06:16:05;10.20;99.90
23137;DHT22;11737;50.558;7.258;2023-03-21T06:18:33;10.20;99.90
23137;DHT22;11737;50.558;7.258;2023-03-21T06:21:00;10.30;99.90
23137;DHT22;11737;50.558;7.258;2023-03-21T06:23:28;10.40;99.90
23137;DHT22;11737;50.558;7.258;2023-03-21T06:25:55;10.40;99.90
23137;DHT22;11737;50.558;7.258;2023-03-21T06:28:42;10.50;99.90
23137;DHT22;11737;50.558;7.258;2023-03-21T06:31:10;10.60;99.90
23137;DHT22;11737;50.558;7.258;2023-03-21T06:33:37;10.70;99.90
23137;DHT22;11737;50.558;7.258;2023-03-21T06:36:05;10.70;99.90
23137;DHT22;11737;50.558;7.258;2023-03-21T06:38:32;10.70;99.90
23137;DHT22;11737;50.558;7.258;2023-03-21T06:41:02;10.70;99.90
23137;DHT22;11737;50.558;7.258;2023-03-21T06:43:31;10.80;99.90
23137;DHT22;11737;50.558;7.258;2023-03-21T06:45:59;10.80;99.90
23137;DHT22;11737;50.558;7.258;2023-03-21T06:48:27;10.90;99.90
23137;DHT22;11737;50.558;7.258;2023-03-21T06:50:55;10.90;99.90
23137;DHT22;11737;50.558;7.258;2023-03-21T06:53:23;10.90;99.90
23137;DHT22;11737;50.558;7.258;2023-03-21T06:55:53;11.00;99.90
23137;DHT22;11737;50.558;7.258;2023-03-21T06:58:22;11.00;99.90
23137;DHT22;11737;50.558;7.258;2023-03-21T07:00:49;11.10;99.90
23137;DHT22;11737;50.558;7.258;2023-03-21T07:03:17;11.10;99.90
23137;DHT22;11737;50.558;7.258;2023-03-21T07:05:44;11.20;99.90
23137;DHT22;11737;50.558;7.258;2023-03-21T07:08:12;11.30;99.90
23137;DHT22;11737;50.558;7.258;2023-03-21T07:10:41;11.40;99.90
23137;DHT22;11737;50.558;7.258;2023-03-21T07:13:09;11.40;99.90
23137;DHT22;11737;50.558;7.258;2023-03-21T07:15:36;11.50;99.90
23137;DHT22;11737;50.558;7.258;2023-03-21T07:18:06;11.50;99.90
23137;DHT22;11737;50.558;7.258;2023-03-21T07:20:35;11.50;99.90
23137;DHT22;11737;50.558;7.258;2023-03-21T07:25:52;11.70;99.90
23137;DHT22;11737;50.558;7.258;2023-03-21T07:28:21;11.70;99.90
23137;DHT22;11737;50.558;7.258;2023-03-21T07:33:40;11.80;99.90
23137;DHT22;11737;50.558;7.258;2023-03-21T07:39:03;11.90;99.90
23137;DHT22;11737;50.558;7.258;2023-03-21T07:41:32;11.90;99.90
23137;DHT22;11737;50.558;7.258;2023-03-21T07:44:00;11.90;99.90
23137;DHT22;11737;50.558;7.258;2023-03-21T07:46:29;12.00;99.90
23137;DHT22;11737;50.558;7.258;2023-03-21T07:48:56;12.00;99.90
23137;DHT22;11737;50.558;7.258;2023-03-21T07:51:24;12.00;99.90
23137;DHT22;11737;50.558;7.258;2023-03-21T07:53:52;12.00;99.90
23137;DHT22;11737;50.558;7.258;2023-03-21T07:56:20;12.00;99.90
23137;DHT22;11737;50.558;7.258;2023-03-21T07:58:47;11.90;99.90
23137;DHT22;11737;50.558;7.258;2023-03-21T08:01:15;11.90;99.90
23137;DHT22;11737;50.558;7.258;2023-03-21T08:03:42;11.80;99.90
23137;DHT22;11737;50.558;7.258;2023-03-21T08:06:10;11.80;99.90
23137;DHT22;11737;50.558;7.258;2023-03-21T08:08:37;11.80;99.90
23137;DHT22;11737;50.558;7.258;2023-03-21T08:13:55;11.70;99.90
23137;DHT22;11737;50.558;7.258;2023-03-21T08:16:22;11.70;99.90
23137;DHT22;11737;50.558;7.258;2023-03-21T08:18:50;11.60;99.90
23137;DHT22;11737;50.558;7.258;2023-03-21T08:21:18;11.60;99.90
23137;DHT22;11737;50.558;7.258;2023-03-21T08:23:45;11.60;99.90
23137;DHT22;11737;50.558;7.258;2023-03-21T08:26:12;11.60;99.90
23137;DHT22;11737;50.558;7.258;2023-03-21T08:28:42;11.70;99.90
23137;DHT22;11737;50.558;7.258;2023-03-21T08:31:10;11.70;99.90
23137;DHT22;11737;50.558;7.258;2023-03-21T08:33:38;11.70;99.90
23137;DHT22;11737;50.558;7.258;2023-03-21T08:36:06;11.70;99.90
23137;DHT22;11737;50.558;7.258;2023-03-21T08:38:34;11.80;99.90
23137;DHT22;11737;50.558;7.258;2023-03-21T08:41:02;11.80;99.90
23137;DHT22;11737;50.558;7.258;2023-03-21T08:43:30;11.80;99.90
23137;DHT22;11737;50.558;7.258;2023-03-21T08:45:58;11.80;99.90
23137;DHT22;11737;50.558;7.258;2023-03-21T08:48:26;11.80;99.90
23137;DHT22;11737;50.558;7.258;2023-03-21T08:50:53;11.80;99.90
23137;DHT22;11737;50.558;7.258;2023-03-21T08:53:21;11.80;99.90
23137;DHT22;11737;50.558;7.258;2023-03-21T08:55:49;11.80;99.90
23137;DHT22;11737;50.558;7.258;2023-03-21T08:58:16;11.80;99.90
23137;DHT22;11737;50.558;7.258;2023-03-21T09:00:44;11.80;99.90
23137;DHT22;11737;50.558;7.258;2023-03-21T09:03:12;11.80;99.90
23137;DHT22;11737;50.558;7.258;2023-03-21T09:05:39;11.80;99.90
23137;DHT22;11737;50.558;7.258;2023-03-21T09:08:07;11.90;99.90
23137;DHT22;11737;50.558;7.258;2023-03-21T09:10:34;11.90;99.90
23137;DHT22;11737;50.558;7.258;2023-03-21T09:13:03;11.90;99.90
23137;DHT22;11737;50.558;7.258;2023-03-21T09:15:31;11.90;99.90
23137;DHT22;11737;50.558;7.258;2023-03-21T09:18:00;11.90;99.90
23137;DHT22;11737;50.558;7.258;2023-03-21T09:23:20;11.90;99.90
23137;DHT22;11737;50.558;7.258;2023-03-21T09:25:48;11.90;99.90
23137;DHT22;11737;50.558;7.258;2023-03-21T09:28:16;11.90;99.90
23137;DHT22;11737;50.558;7.258;2023-03-21T09:30:44;11.90;99.90
23137;DHT22;11737;50.558;7.258;2023-03-21T09:33:12;11.90;99.90
23137;DHT22;11737;50.558;7.258;2023-03-21T09:35:41;11.90;99.90
23137;DHT22;11737;50.558;7.258;2023-03-21T09:38:10;11.90;99.90
23137;DHT22;11737;50.558;7.258;2023-03-21T09:41:01;11.90;99.90
23137;DHT22;11737;50.558;7.258;2023-03-21T09:43:35;12.00;99.90
23137;DHT22;11737;50.558;7.258;2023-03-21T09:48:57;12.20;99.90
23137;DHT22;11737;50.558;7.258;2023-03-21T09:51:30;12.30;99.90
23137;DHT22;11737;50.558;7.258;2023-03-21T09:53:58;12.40;99.90
23137;DHT22;11737;50.558;7.258;2023-03-21T09:56:27;12.50;99.90
23137;DHT22;11737;50.558;7.258;2023-03-21T09:58:58;12.60;99.90
23137;DHT22;11737;50.558;7.258;2023-03-21T10:01:28;12.60;99.90
23137;DHT22;11737;50.558;7.258;2023-03-21T10:04:01;12.70;99.90
23137;DHT22;11737;50.558;7.258;2023-03-21T10:06:31;12.80;99.90
23137;DHT22;11737;50.558;7.258;2023-03-21T10:09:07;12.90;99.90
23137;DHT22;11737;50.558;7.258;2023-03-21T10:14:10;13.10;99.90
23137;DHT22;11737;50.558;7.258;2023-03-21T10:16:41;13.30;99.90
23137;DHT22;11737;50.558;7.258;2023-03-21T10:19:15;13.40;99.90
23137;DHT22;11737;50.558;7.258;2023-03-21T10:21:47;13.50;99.90
23137;DHT22;11737;50.558;7.258;2023-03-21T10:24:25;13.70;99.90
23137;DHT22;11737;50.558;7.258;2023-03-21T10:29:43;13.90;99.90
23137;DHT22;11737;50.558;7.258;2023-03-21T10:32:14;13.90;99.90
23137;DHT22;11737;50.558;7.258;2023-03-21T10:34:49;13.90;99.90
23137;DHT22;11737;50.558;7.258;2023-03-21T10:37:13;14.00;99.90
23137;DHT22;11737;50.558;7.258;2023-03-21T10:39:44;14.00;99.90
23137;DHT22;11737;50.558;7.258;2023-03-21T10:42:27;14.00;99.90
23137;DHT22;11737;50.558;7.258;2023-03-21T10:44:55;14.00;99.90
23137;DHT22;11737;50.558;7.258;2023-03-21T10:47:33;13.90;99.90
23137;DHT22;11737;50.558;7.258;2023-03-21T10:50:01;13.80;99.90
23137;DHT22;11737;50.558;7.258;2023-03-21T10:52:29;13.70;99.90
23137;DHT22;11737;50.558;7.258;2023-03-21T10:57:59;13.60;99.90
23137;DHT22;11737;50.558;7.258;2023-03-21T11:00:29;13.50;99.90
23137;DHT22;11737;50.558;7.258;2023-03-21T11:02:59;13.50;99.90
23137;DHT22;11737;50.558;7.258;2023-03-21T11:05:39;13.50;99.90
23137;DHT22;11737;50.558;7.258;2023-03-21T11:08:13;13.50;99.90
23137;DHT22;11737;50.558;7.258;2023-03-21T11:10:50;13.60;99.90
23137;DHT22;11737;50.558;7.258;2023-03-21T11:13:23;13.60;99.90
23137;DHT22;11737;50.558;7.258;2023-03-21T11:15:57;13.60;99.90
23137;DHT22;11737;50.558;7.258;2023-03-21T11:21:14;13.40;99.90
23137;DHT22;11737;50.558;7.258;2023-03-21T11:23:44;13.30;99.90
23137;DHT22;11737;50.558;7.258;2023-03-21T11:26:29;13.20;99.90
23137;DHT22;11737;50.558;7.258;2023-03-21T11:28:56;13.10;99.90
23137;DHT22;11737;50.558;7.258;2023-03-21T11:31:38;13.00;99.90
23137;DHT22;11737;50.558;7.258;2023-03-21T11:34:30;13.00;99.90
23137;DHT22;11737;50.558;7.258;2023-03-21T11:37:01;12.90;99.90
23137;DHT22;11737;50.558;7.258;2023-03-21T11:39:36;12.90;99.90
23137;DHT22;11737;50.558;7.258;2023-03-21T11:42:24;12.90;99.90
23137;DHT22;11737;50.558;7.258;2023-03-21T11:44:43;13.00;99.90
23137;DHT22;11737;50.558;7.258;2023-03-21T11:47:11;13.10;99.90
23137;DHT22;11737;50.558;7.258;2023-03-21T11:49:38;13.10;99.90
23137;DHT22;11737;50.558;7.258;2023-03-21T11:52:30;13.20;99.90
23137;DHT22;11737;50.558;7.258;2023-03-21T11:55:22;13.20;99.90
23137;DHT22;11737;50.558;7.258;2023-03-21T12:01:02;13.10;99.90
23137;DHT22;11737;50.558;7.258;2023-03-21T12:03:46;13.10;99.90
23137;DHT22;11737;50.558;7.258;2023-03-21T12:06:21;13.10;99.90
23137;DHT22;11737;50.558;7.258;2023-03-21T12:11:37;13.10;99.90
23137;DHT22;11737;50.558;7.258;2023-03-21T12:17:27;13.30;99.90
23137;DHT22;11737;50.558;7.258;2023-03-21T12:25:38;13.40;99.90
23137;DHT22;11737;50.558;7.258;2023-03-21T12:31:58;13.60;99.90
23137;DHT22;11737;50.558;7.258;2023-03-21T12:40:38;13.70;99.90
23137;DHT22;11737;50.558;7.258;2023-03-21T12:46:20;13.80;99.90
23137;DHT22;11737;50.558;7.258;2023-03-21T12:48:52;13.80;99.90
23137;DHT22;11737;50.558;7.258;2023-03-21T12:51:28;13.80;99.90
23137;DHT22;11737;50.558;7.258;2023-03-21T12:54:04;13.80;99.90
23137;DHT22;11737;50.558;7.258;2023-03-21T12:56:37;13.90;99.90
23137;DHT22;11737;50.558;7.258;2023-03-21T13:02:52;13.80;99.90
23137;DHT22;11737;50.558;7.258;2023-03-21T13:04:51;13.90;99.90
23137;DHT22;11737;50.558;7.258;2023-03-21T13:07:19;13.90;99.90
23137;DHT22;11737;50.558;7.258;2023-03-21T13:09:48;14.10;99.90
23137;DHT22;11737;50.558;7.258;2023-03-21T13:15:46;14.50;99.90
23137;DHT22;11737;50.558;7.258;2023-03-21T13:21:14;14.70;99.90
23137;DHT22;11737;50.558;7.258;2023-03-21T13:26:37;14.70;99.90
23137;DHT22;11737;50.558;7.258;2023-03-21T13:31:50;14.90;99.90
23137;DHT22;11737;50.558;7.258;2023-03-21T13:34:20;15.00;99.90
23137;DHT22;11737;50.558;7.258;2023-03-21T13:36:50;15.20;99.90
23137;DHT22;11737;50.558;7.258;2023-03-21T13:39:26;15.40;99.90
23137;DHT22;11737;50.558;7.258;2023-03-21T13:41:55;15.60;99.90
23137;DHT22;11737;50.558;7.258;2023-03-21T13:44:30;15.80;99.90
23137;DHT22;11737;50.558;7.258;2023-03-21T13:47:00;15.90;99.90
23137;DHT22;11737;50.558;7.258;2023-03-21T13:49:36;16.00;99.90
23137;DHT22;11737;50.558;7.258;2023-03-21T13:55:02;16.10;99.90
23137;DHT22;11737;50.558;7.258;2023-03-21T14:00:16;16.10;99.90
23137;DHT22;11737;50.558;7.258;2023-03-21T14:03:07;16.10;99.90
23137;DHT22;11737;50.558;7.258;2023-03-21T14:05:35;16.10;99.90
23137;DHT22;11737;50.558;7.258;2023-03-21T14:08:06;16.00;99.90
23137;DHT22;11737;50.558;7.258;2023-03-21T14:10:39;16.00;99.90
23137;DHT22;11737;50.558;7.258;2023-03-21T14:13:10;16.00;99.90
23137;DHT22;11737;50.558;7.258;2023-03-21T14:15:45;16.00;99.90
23137;DHT22;11737;50.558;7.258;2023-03-21T14:18:15;16.00;99.90
23137;DHT22;11737;50.558;7.258;2023-03-21T14:20:42;16.00;99.90
23137;DHT22;11737;50.558;7.258;2023-03-21T14:23:15;16.00;99.90
23137;DHT22;11737;50.558;7.258;2023-03-21T14:25:43;15.90;99.90
23137;DHT22;11737;50.558;7.258;2023-03-21T14:28:27;15.80;99.90
23137;DHT22;11737;50.558;7.258;2023-03-21T14:30:59;15.80;99.90
23137;DHT22;11737;50.558;7.258;2023-03-21T14:36:02;15.70;99.90
23137;DHT22;11737;50.558;7.258;2023-03-21T14:38:34;15.70;99.90
23137;DHT22;11737;50.558;7.258;2023-03-21T14:41:02;15.70;99.90
23137;DHT22;11737;50.558;7.258;2023-03-21T14:43:30;15.60;99.90
23137;DHT22;11737;50.558;7.258;2023-03-21T14:46:00;15.60;99.90
23137;DHT22;11737;50.558;7.258;2023-03-21T14:48:30;15.60;99.90
23137;DHT22;11737;50.558;7.258;2023-03-21T14:51:09;15.50;99.90
23137;DHT22;11737;50.558;7.258;2023-03-21T14:53:38;15.50;99.90
23137;DHT22;11737;50.558;7.258;2023-03-21T14:56:25;15.40;99.90
23137;DHT22;11737;50.558;7.258;2023-03-21T14:58:51;15.50;99.90
23137;DHT22;11737;50.558;7.258;2023-03-21T15:01:26;15.50;99.90
23137;DHT22;11737;50.558;7.258;2023-03-21T15:03:54;15.50;99.90
23137;DHT22;11737;50.558;7.258;2023-03-21T15:06:21;15.50;99.90
23137;DHT22;11737;50.558;7.258;2023-03-21T15:08:58;15.50;99.90
23137;DHT22;11737;50.558;7.258;2023-03-21T15:11:30;15.40;99.90
23137;DHT22;11737;50.558;7.258;2023-03-21T15:14:15;15.40;99.90
23137;DHT22;11737;50.558;7.258;2023-03-21T15:16:44;15.50;99.90
23137;DHT22;11737;50.558;7.258;2023-03-21T15:19:15;15.50;99.90
23137;DHT22;11737;50.558;7.258;2023-03-21T15:21:45;15.60;99.90
23137;DHT22;11737;50.558;7.258;2023-03-21T15:24:16;15.70;99.90
23137;DHT22;11737;50.558;7.258;2023-03-21T15:26:45;15.80;99.90
23137;DHT22;11737;50.558;7.258;2023-03-21T15:32:24;16.10;99.90
23137;DHT22;11737;50.558;7.258;2023-03-21T15:34:55;16.40;99.90
23137;DHT22;11737;50.558;7.258;2023-03-21T15:37:26;16.70;99.90
23137;DHT22;11737;50.558;7.258;2023-03-21T15:40:04;17.20;99.90
23137;DHT22;11737;50.558;7.258;2023-03-21T15:45:24;18.20;99.90
23137;DHT22;11737;50.558;7.258;2023-03-21T15:47:54;18.90;99.90
23137;DHT22;11737;50.558;7.258;2023-03-21T15:50:29;19.40;99.90
23137;DHT22;11737;50.558;7.258;2023-03-21T15:52:58;19.50;99.90
23137;DHT22;11737;50.558;7.258;2023-03-21T15:55:43;19.30;99.90
23137;DHT22;11737;50.558;7.258;2023-03-21T15:58:22;19.20;99.90
23137;DHT22;11737;50.558;7.258;2023-03-21T16:00:57;19.00;99.90
23137;DHT22;11737;50.558;7.258;2023-03-21T16:03:31;18.80;99.90
23137;DHT22;11737;50.558;7.258;2023-03-21T16:08:45;18.20;99.90
23137;DHT22;11737;50.558;7.258;2023-03-21T16:11:27;18.00;99.90
23137;DHT22;11737;50.558;7.258;2023-03-21T16:13:55;17.90;99.90
23137;DHT22;11737;50.558;7.258;2023-03-21T16:16:25;17.70;99.90
23137;DHT22;11737;50.558;7.258;2023-03-21T16:18:54;17.80;99.90
23137;DHT22;11737;50.558;7.258;2023-03-21T16:21:24;18.60;99.90
23137;DHT22;11737;50.558;7.258;2023-03-21T16:23:53;20.00;99.90
23137;DHT22;11737;50.558;7.258;2023-03-21T16:26:26;21.30;99.90
23137;DHT22;11737;50.558;7.258;2023-03-21T16:28:55;22.60;99.90
23137;DHT22;11737;50.558;7.258;2023-03-21T16:31:26;23.40;99.90
23137;DHT22;11737;50.558;7.258;2023-03-21T16:33:54;23.70;99.90
23137;DHT22;11737;50.558;7.258;2023-03-21T16:36:28;24.30;99.90
23137;DHT22;11737;50.558;7.258;2023-03-21T16:38:55;25.10;99.90
23137;DHT22;11737;50.558;7.258;2023-03-21T16:41:24;25.50;99.90
23137;DHT22;11737;50.558;7.258;2023-03-21T16:43:53;25.80;99.90
23137;DHT22;11737;50.558;7.258;2023-03-21T16:46:22;26.00;99.10
23137;DHT22;11737;50.558;7.258;2023-03-21T16:48:54;26.00;98.00
23137;DHT22;11737;50.558;7.258;2023-03-21T16:51:23;26.10;97.10
23137;DHT22;11737;50.558;7.258;2023-03-21T16:53:56;25.70;95.90
23137;DHT22;11737;50.558;7.258;2023-03-21T16:56:33;25.10;95.80
23137;DHT22;11737;50.558;7.258;2023-03-21T16:59:00;24.30;96.20
23137;DHT22;11737;50.558;7.258;2023-03-21T17:01:27;23.40;97.20
23137;DHT22;11737;50.558;7.258;2023-03-21T17:03:56;22.60;97.80
23137;DHT22;11737;50.558;7.258;2023-03-21T17:06:26;21.80;98.80
23137;DHT22;11737;50.558;7.258;2023-03-21T17:08:55;21.10;99.80
23137;DHT22;11737;50.558;7.258;2023-03-21T17:11:26;20.50;99.90
23137;DHT22;11737;50.558;7.258;2023-03-21T17:13:55;19.70;99.90
23137;DHT22;11737;50.558;7.258;2023-03-21T17:16:24;18.90;99.90
23137;DHT22;11737;50.558;7.258;2023-03-21T17:18:52;18.20;99.90
23137;DHT22;11737;50.558;7.258;2023-03-21T17:21:23;17.50;99.90
23137;DHT22;11737;50.558;7.258;2023-03-21T17:23:51;16.90;99.90
23137;DHT22;11737;50.558;7.258;2023-03-21T17:26:24;16.40;99.90
23137;DHT22;11737;50.558;7.258;2023-03-21T17:28:53;16.00;99.90
23137;DHT22;11737;50.558;7.258;2023-03-21T17:31:23;15.60;99.90
23137;DHT22;11737;50.558;7.258;2023-03-21T17:33:51;15.30;99.90
23137;DHT22;11737;50.558;7.258;2023-03-21T17:36:25;15.10;99.90
23137;DHT22;11737;50.558;7.258;2023-03-21T17:38:52;15.00;99.90
23137;DHT22;11737;50.558;7.258;2023-03-21T17:41:21;14.80;99.90
23137;DHT22;11737;50.558;7.258;2023-03-21T17:43:48;14.70;99.90
23137;DHT22;11737;50.558;7.258;2023-03-21T17:46:19;14.60;99.90
23137;DHT22;11737;50.558;7.258;2023-03-21T17:48:49;14.50;99.90
23137;DHT22;11737;50.558;7.258;2023-03-21T17:51:17;14.40;99.90
23137;DHT22;11737;50.558;7.258;2023-03-21T17:53:47;14.30;99.90
23137;DHT22;11737;50.558;7.258;2023-03-21T17:56:24;14.20;99.90
23137;DHT22;11737;50.558;7.258;2023-03-21T17:58:52;14.20;99.90
23137;DHT22;11737;50.558;7.258;2023-03-21T18:01:21;14.20;99.90
23137;DHT22;11737;50.558;7.258;2023-03-21T18:03:49;14.10;99.90